createdAt,value
2019-02-10T00:00:37.173Z,987.04
2019-02-10T00:01:36.874Z,986.99
2019-02-10T00:02:37.006Z,986.89
2019-02-10T00:03:36.845Z,986.93
2019-02-10T00:04:36.954Z,986.91
2019-02-10T00:05:36.823Z,986.93
2019-02-10T00:06:36.811Z,986.85
2019-02-10T00:07:36.885Z,986.88
2019-02-10T00:08:36.785Z,986.94
2019-02-10T00:09:36.997Z,986.98
2019-02-10T00:10:36.856Z,986.97
2019-02-10T00:11:36.834Z,986.91
2019-02-10T00:12:36.801Z,986.93
2019-02-10T00:13:37.011Z,987.01
2019-02-10T00:14:36.721Z,986.92
2019-02-10T00:15:36.709Z,986.94
2019-02-10T00:16:36.707Z,987.08
2019-02-10T00:17:36.698Z,987.04
2019-02-10T00:18:36.678Z,987.04
2019-02-10T00:19:36.668Z,986.96
2019-02-10T00:20:36.654Z,987.03
2019-02-10T00:21:36.654Z,987.07
2019-02-10T00:22:36.648Z,987.05
2019-02-10T00:23:36.622Z,986.94
2019-02-10T00:24:36.613Z,986.97
2019-02-10T00:25:36.598Z,986.93
2019-02-10T00:26:36.587Z,986.90
2019-02-10T00:27:36.599Z,986.90
2019-02-10T00:28:36.566Z,986.91
2019-02-10T00:29:36.553Z,986.95
2019-02-10T00:30:36.554Z,986.97
2019-02-10T00:31:36.534Z,986.92
2019-02-10T00:32:36.535Z,986.90
2019-02-10T00:33:36.520Z,986.94
2019-02-10T00:34:36.499Z,986.82
2019-02-10T00:35:36.491Z,986.82
2019-02-10T00:36:36.480Z,986.79
2019-02-10T00:37:36.482Z,986.74
2019-02-10T00:38:36.457Z,986.80
2019-02-10T00:39:36.450Z,986.74
2019-02-10T00:40:36.437Z,986.77
2019-02-10T00:41:36.426Z,986.77
2019-02-10T00:42:36.428Z,986.74
2019-02-10T00:43:36.404Z,986.73
2019-02-10T00:44:36.393Z,986.71
2019-02-10T00:45:36.382Z,986.68
2019-02-10T00:46:36.370Z,986.65
2019-02-10T00:47:36.375Z,986.69
2019-02-10T00:48:36.347Z,986.66
2019-02-10T00:49:36.336Z,986.61
2019-02-10T00:50:36.326Z,986.59
2019-02-10T00:51:36.323Z,986.58
2019-02-10T00:52:36.342Z,986.63
2019-02-10T00:53:36.310Z,986.61
2019-02-10T00:54:36.349Z,986.59
2019-02-10T00:55:36.281Z,986.59
2019-02-10T00:56:36.264Z,986.53
2019-02-10T00:57:36.527Z,986.50
2019-02-10T00:58:36.268Z,986.54
2019-02-10T00:59:36.274Z,986.48
2019-02-10T01:00:36.241Z,986.37
2019-02-10T01:01:36.215Z,986.46
2019-02-10T01:02:36.214Z,986.46
2019-02-10T01:03:36.235Z,986.44
2019-02-10T01:04:36.205Z,986.34
2019-02-10T01:05:36.238Z,986.38
2019-02-10T01:06:41.212Z,986.29
2019-02-10T01:07:37.154Z,986.28
2019-02-10T01:08:36.248Z,986.28
2019-02-10T01:09:36.224Z,986.33
2019-02-10T01:10:36.124Z,986.37
2019-02-10T01:11:36.130Z,986.38
2019-02-10T01:12:36.132Z,986.36
2019-02-10T01:13:36.222Z,986.25
2019-02-10T01:14:36.110Z,986.22
2019-02-10T01:15:36.099Z,986.10
2019-02-10T01:16:36.077Z,986.23
2019-02-10T01:17:36.044Z,986.17
2019-02-10T01:18:36.039Z,986.12
2019-02-10T01:19:36.070Z,986.07
2019-02-10T01:20:36.123Z,986.12
2019-02-10T01:21:36.031Z,986.14
2019-02-10T01:22:35.980Z,986.11
2019-02-10T01:23:35.995Z,986.04
2019-02-10T01:24:35.955Z,986.04
2019-02-10T01:25:35.944Z,986.01
2019-02-10T01:26:35.933Z,985.95
2019-02-10T01:27:35.927Z,985.97
2019-02-10T01:28:35.930Z,985.93
2019-02-10T01:29:35.918Z,985.93
2019-02-10T01:30:35.890Z,985.95
2019-02-10T01:31:35.895Z,986.00
2019-02-10T01:32:35.870Z,985.90
2019-02-10T01:33:35.884Z,985.82
2019-02-10T01:34:35.845Z,985.71
2019-02-10T01:35:35.836Z,985.76
2019-02-10T01:36:35.829Z,985.68
2019-02-10T01:37:35.814Z,985.71
2019-02-10T01:38:35.946Z,985.65
2019-02-10T01:39:35.800Z,985.64
2019-02-10T01:40:35.782Z,985.60
2019-02-10T01:41:35.769Z,985.45
2019-02-10T01:42:35.758Z,985.41
2019-02-10T01:43:35.920Z,985.39
2019-02-10T01:44:35.744Z,985.32
2019-02-10T01:45:35.726Z,985.32
2019-02-10T01:46:35.715Z,985.30
2019-02-10T01:47:35.707Z,985.20
2019-02-10T01:48:35.701Z,985.19
2019-02-10T01:49:35.710Z,985.19
2019-02-10T01:50:35.673Z,985.18
2019-02-10T01:51:35.662Z,985.17
2019-02-10T01:52:35.651Z,985.14
2019-02-10T01:53:35.642Z,985.10
2019-02-10T01:54:35.641Z,985.03
2019-02-10T01:55:35.617Z,985.08
2019-02-10T01:56:35.608Z,985.05
2019-02-10T01:57:35.604Z,985.01
2019-02-10T01:58:35.589Z,984.93
2019-02-10T01:59:35.587Z,984.95
2019-02-10T02:00:35.563Z,984.90
2019-02-10T02:01:35.553Z,984.85
2019-02-10T02:02:35.542Z,984.81
2019-02-10T02:03:35.532Z,984.87
2019-02-10T02:04:35.536Z,984.80
2019-02-10T02:05:35.508Z,984.79
2019-02-10T02:06:35.499Z,984.78
2019-02-10T02:07:35.495Z,984.79
2019-02-10T02:08:35.481Z,984.78
2019-02-10T02:09:35.479Z,984.77
2019-02-10T02:10:35.455Z,984.80
2019-02-10T02:11:35.446Z,984.78
2019-02-10T02:12:35.434Z,984.77
2019-02-10T02:13:36.523Z,984.70
2019-02-10T02:14:35.437Z,984.75
2019-02-10T02:15:35.399Z,984.73
2019-02-10T02:16:35.401Z,984.67
2019-02-10T02:17:35.384Z,984.61
2019-02-10T02:18:35.373Z,984.61
2019-02-10T02:19:35.358Z,984.57
2019-02-10T02:20:35.357Z,984.51
2019-02-10T02:21:35.334Z,984.48
2019-02-10T02:22:35.327Z,984.43
2019-02-10T02:23:35.314Z,984.38
2019-02-10T02:24:35.303Z,984.40
2019-02-10T02:25:35.322Z,984.38
2019-02-10T02:26:35.281Z,984.33
2019-02-10T02:27:35.270Z,984.33
2019-02-10T02:28:35.261Z,984.31
2019-02-10T02:29:35.254Z,984.31
2019-02-10T02:30:35.249Z,984.26
2019-02-10T02:31:35.240Z,984.23
2019-02-10T02:32:35.213Z,984.26
2019-02-10T02:33:35.203Z,984.20
2019-02-10T02:34:35.199Z,984.25
2019-02-10T02:35:35.198Z,984.17
2019-02-10T02:36:35.174Z,984.11
2019-02-10T02:37:35.165Z,984.10
2019-02-10T02:38:35.149Z,984.07
2019-02-10T02:39:35.142Z,983.91
2019-02-10T02:40:35.142Z,983.91
2019-02-10T02:41:35.116Z,983.92
2019-02-10T02:42:35.113Z,983.94
2019-02-10T02:43:35.097Z,983.91
2019-02-10T02:44:35.087Z,983.80
2019-02-10T02:45:35.090Z,983.71
2019-02-10T02:46:35.062Z,983.66
2019-02-10T02:47:35.076Z,983.64
2019-02-10T02:48:35.043Z,983.55
2019-02-10T02:49:35.036Z,983.54
2019-02-10T02:50:35.031Z,983.46
2019-02-10T02:51:35.011Z,983.52
2019-02-10T02:52:34.997Z,983.52
2019-02-10T02:53:34.986Z,983.53
2019-02-10T02:54:34.975Z,983.56
2019-02-10T02:55:34.981Z,983.60
2019-02-10T02:56:34.954Z,983.56
2019-02-10T02:57:34.944Z,983.54
2019-02-10T02:58:34.935Z,983.51
2019-02-10T02:59:34.943Z,983.50
2019-02-10T03:00:34.921Z,983.48
2019-02-10T03:01:34.904Z,983.44
2019-02-10T03:02:34.898Z,983.53
2019-02-10T03:03:34.882Z,983.51
2019-02-10T03:04:34.865Z,983.51
2019-02-10T03:05:34.892Z,983.55
2019-02-10T03:06:34.847Z,983.50
2019-02-10T03:07:34.833Z,983.50
2019-02-10T03:08:34.820Z,983.47
2019-02-10T03:09:34.815Z,983.48
2019-02-10T03:10:34.831Z,983.45
2019-02-10T03:11:34.789Z,983.46
2019-02-10T03:12:34.780Z,983.42
2019-02-10T03:13:34.770Z,983.43
2019-02-10T03:14:34.758Z,983.41
2019-02-10T03:15:34.829Z,983.31
2019-02-10T03:16:34.737Z,983.34
2019-02-10T03:17:34.728Z,983.31
2019-02-10T03:18:34.719Z,983.30
2019-02-10T03:19:34.711Z,983.32
2019-02-10T03:20:34.700Z,983.33
2019-02-10T03:21:34.693Z,983.33
2019-02-10T03:22:34.683Z,983.32
2019-02-10T03:23:34.664Z,983.37
2019-02-10T03:24:34.656Z,983.30
2019-02-10T03:25:34.637Z,983.29
2019-02-10T03:26:34.659Z,983.33
2019-02-10T03:27:34.715Z,983.31
2019-02-10T03:28:34.652Z,983.27
2019-02-10T03:29:34.596Z,983.26
2019-02-10T03:30:34.591Z,983.26
2019-02-10T03:31:34.608Z,983.28
2019-02-10T03:32:34.560Z,983.28
2019-02-10T03:33:34.551Z,983.25
2019-02-10T03:34:34.557Z,983.21
2019-02-10T03:35:34.538Z,983.25
2019-02-10T03:36:34.537Z,983.22
2019-02-10T03:37:34.508Z,983.22
2019-02-10T03:38:34.496Z,983.21
2019-02-10T03:39:34.521Z,983.21
2019-02-10T03:40:34.475Z,983.17
2019-02-10T03:41:34.494Z,983.16
2019-02-10T03:42:34.463Z,983.15
2019-02-10T03:43:34.453Z,983.18
2019-02-10T03:44:34.435Z,983.11
2019-02-10T03:45:34.426Z,983.12
2019-02-10T03:46:34.430Z,983.04
2019-02-10T03:47:34.434Z,982.97
2019-02-10T03:48:34.412Z,982.93
2019-02-10T03:49:34.377Z,982.86
2019-02-10T03:50:34.366Z,982.85
2019-02-10T03:51:34.366Z,982.80
2019-02-10T03:52:34.355Z,982.75
2019-02-10T03:53:34.339Z,982.71
2019-02-10T03:54:34.337Z,982.65
2019-02-10T03:55:34.343Z,982.60
2019-02-10T03:56:34.317Z,982.60
2019-02-10T03:57:34.307Z,982.56
2019-02-10T03:58:34.279Z,982.55
2019-02-10T03:59:34.281Z,982.45
2019-02-10T04:00:34.268Z,982.39
2019-02-10T04:01:34.271Z,982.37
2019-02-10T04:02:34.240Z,982.36
2019-02-10T04:03:34.224Z,982.35
2019-02-10T04:04:34.216Z,982.34
2019-02-10T04:05:34.213Z,982.28
2019-02-10T04:06:34.203Z,982.29
2019-02-10T04:07:36.109Z,982.30
2019-02-10T04:08:34.172Z,982.26
2019-02-10T04:09:34.165Z,982.23
2019-02-10T04:10:34.153Z,982.22
2019-02-10T04:11:34.148Z,982.25
2019-02-10T04:12:34.181Z,982.23
2019-02-10T04:13:34.124Z,982.17
2019-02-10T04:14:34.126Z,982.19
2019-02-10T04:15:34.101Z,982.13
2019-02-10T04:16:34.098Z,982.12
2019-02-10T04:17:34.074Z,982.04
2019-02-10T04:18:34.064Z,981.99
2019-02-10T04:19:34.054Z,981.96
2019-02-10T04:20:34.044Z,981.93
2019-02-10T04:21:34.042Z,981.82
2019-02-10T04:22:34.028Z,981.84
2019-02-10T04:23:34.008Z,981.82
2019-02-10T04:24:34.005Z,981.82
2019-02-10T04:25:33.992Z,981.77
2019-02-10T04:26:33.987Z,981.72
2019-02-10T04:27:33.996Z,981.73
2019-02-10T04:28:33.962Z,981.71
2019-02-10T04:29:33.944Z,981.68
2019-02-10T04:30:33.934Z,981.67
2019-02-10T04:31:33.947Z,981.63
2019-02-10T04:32:33.907Z,981.65
2019-02-10T04:33:33.897Z,981.62
2019-02-10T04:34:33.889Z,981.67
2019-02-10T04:35:33.878Z,981.65
2019-02-10T04:36:33.876Z,981.63
2019-02-10T04:37:33.857Z,981.64
2019-02-10T04:38:33.858Z,981.66
2019-02-10T04:39:33.836Z,981.69
2019-02-10T04:40:33.823Z,981.62
2019-02-10T04:41:33.828Z,981.56
2019-02-10T04:42:33.821Z,981.58
2019-02-10T04:43:33.810Z,981.51
2019-02-10T04:44:33.786Z,981.51
2019-02-10T04:45:33.765Z,981.47
2019-02-10T04:46:33.771Z,981.52
2019-02-10T04:47:33.748Z,981.58
2019-02-10T04:48:33.750Z,981.49
2019-02-10T04:49:33.724Z,981.45
2019-02-10T04:50:33.727Z,981.38
2019-02-10T04:51:33.737Z,981.44
2019-02-10T04:52:33.707Z,981.37
2019-02-10T04:53:33.682Z,981.42
2019-02-10T04:54:33.667Z,981.39
2019-02-10T04:55:33.655Z,981.46
2019-02-10T04:56:33.660Z,981.41
2019-02-10T04:57:33.668Z,981.36
2019-02-10T04:58:33.626Z,981.42
2019-02-10T04:59:33.621Z,981.41
2019-02-10T05:00:33.622Z,981.42
2019-02-10T05:01:33.606Z,981.41
2019-02-10T05:02:33.595Z,981.39
2019-02-10T05:03:33.570Z,981.38
2019-02-10T05:04:33.572Z,981.37
2019-02-10T05:05:33.553Z,981.35
2019-02-10T05:06:33.535Z,981.35
2019-02-10T05:07:33.538Z,981.41
2019-02-10T05:08:33.514Z,981.42
2019-02-10T05:09:33.506Z,981.43
2019-02-10T05:10:33.494Z,981.31
2019-02-10T05:11:33.481Z,981.30
2019-02-10T05:12:33.492Z,981.32
2019-02-10T05:13:33.473Z,981.25
2019-02-10T05:14:33.501Z,981.36
2019-02-10T05:15:33.442Z,981.32
2019-02-10T05:16:33.428Z,981.29
2019-02-10T05:17:33.432Z,981.34
2019-02-10T05:18:33.408Z,981.29
2019-02-10T05:19:33.395Z,981.30
2019-02-10T05:20:33.394Z,981.35
2019-02-10T05:21:33.376Z,981.39
2019-02-10T05:22:33.381Z,981.40
2019-02-10T05:23:33.357Z,981.41
2019-02-10T05:24:33.345Z,981.41
2019-02-10T05:25:33.331Z,981.51
2019-02-10T05:26:33.333Z,981.44
2019-02-10T05:27:33.327Z,981.47
2019-02-10T05:28:33.297Z,981.49
2019-02-10T05:29:33.308Z,981.47
2019-02-10T05:30:33.276Z,981.36
2019-02-10T05:31:33.268Z,981.43
2019-02-10T05:32:33.272Z,981.35
2019-02-10T05:33:33.279Z,981.25
2019-02-10T05:34:33.235Z,981.17
2019-02-10T05:35:33.226Z,981.13
2019-02-10T05:36:33.209Z,981.11
2019-02-10T05:37:33.240Z,981.11
2019-02-10T05:38:33.189Z,981.04
2019-02-10T05:39:33.183Z,981.02
2019-02-10T05:40:33.180Z,981.07
2019-02-10T05:41:33.158Z,981.05
2019-02-10T05:42:33.161Z,981.02
2019-02-10T05:43:33.158Z,981.03
2019-02-10T05:44:33.132Z,980.98
2019-02-10T05:45:33.133Z,980.96
2019-02-10T05:46:33.109Z,980.99
2019-02-10T05:47:33.112Z,980.96
2019-02-10T05:48:33.086Z,980.92
2019-02-10T05:49:33.081Z,980.84
2019-02-10T05:50:33.069Z,980.81
2019-02-10T05:51:33.050Z,980.73
2019-02-10T05:52:33.051Z,980.71
2019-02-10T05:53:33.042Z,980.75
2019-02-10T05:54:33.020Z,980.70
2019-02-10T05:55:33.021Z,980.70
2019-02-10T05:56:32.999Z,980.65
2019-02-10T05:57:33.023Z,980.52
2019-02-10T05:58:33.005Z,980.46
2019-02-10T05:59:32.969Z,980.49
2019-02-10T06:00:32.955Z,980.47
2019-02-10T06:01:32.960Z,980.39
2019-02-10T06:02:32.938Z,980.32
2019-02-10T06:03:32.946Z,980.33
2019-02-10T06:04:32.914Z,980.27
2019-02-10T06:05:32.905Z,980.25
2019-02-10T06:06:32.889Z,980.22
2019-02-10T06:07:32.897Z,980.22
2019-02-10T06:08:32.889Z,980.16
2019-02-10T06:09:32.864Z,980.18
2019-02-10T06:10:32.853Z,980.14
2019-02-10T06:11:32.835Z,980.11
2019-02-10T06:12:32.823Z,980.10
2019-02-10T06:13:32.834Z,980.04
2019-02-10T06:14:32.805Z,980.02
2019-02-10T06:15:32.796Z,979.98
2019-02-10T06:16:32.787Z,979.95
2019-02-10T06:17:32.784Z,979.90
2019-02-10T06:18:32.770Z,979.87
2019-02-10T06:19:32.749Z,979.86
2019-02-10T06:20:32.736Z,979.88
2019-02-10T06:21:32.728Z,979.81
2019-02-10T06:22:32.714Z,979.77
2019-02-10T06:23:32.715Z,979.80
2019-02-10T06:24:32.694Z,979.78
2019-02-10T06:25:32.697Z,979.82
2019-02-10T06:26:32.672Z,979.85
2019-02-10T06:27:32.660Z,979.87
2019-02-10T06:28:32.677Z,979.78
2019-02-10T06:29:32.640Z,979.85
2019-02-10T06:30:32.638Z,979.80
2019-02-10T06:31:32.624Z,979.68
2019-02-10T06:32:32.610Z,979.67
2019-02-10T06:33:32.622Z,979.69
2019-02-10T06:34:32.600Z,979.59
2019-02-10T06:35:32.579Z,979.64
2019-02-10T06:36:32.584Z,979.65
2019-02-10T06:37:32.557Z,979.68
2019-02-10T06:38:32.556Z,979.70
2019-02-10T06:39:32.533Z,979.67
2019-02-10T06:40:32.531Z,979.71
2019-02-10T06:41:32.511Z,979.69
2019-02-10T06:42:32.502Z,979.67
2019-02-10T06:43:32.525Z,979.65
2019-02-10T06:44:32.485Z,979.63
2019-02-10T06:45:32.469Z,979.67
2019-02-10T06:46:32.463Z,979.71
2019-02-10T06:47:32.449Z,979.65
2019-02-10T06:48:32.490Z,979.64
2019-02-10T06:49:32.449Z,979.57
2019-02-10T06:50:32.459Z,979.53
2019-02-10T06:51:32.416Z,979.56
2019-02-10T06:52:32.394Z,979.57
2019-02-10T06:53:32.443Z,979.51
2019-02-10T06:54:32.376Z,979.45
2019-02-10T06:55:32.363Z,979.38
2019-02-10T06:56:32.354Z,979.27
2019-02-10T06:57:32.345Z,979.19
2019-02-10T06:58:32.329Z,979.14
2019-02-10T06:59:32.336Z,979.15
2019-02-10T07:00:32.339Z,979.11
2019-02-10T07:01:32.301Z,979.11
2019-02-10T07:02:32.286Z,979.06
2019-02-10T07:03:32.277Z,979.04
2019-02-10T07:04:32.280Z,979.03
2019-02-10T07:05:32.281Z,979.01
2019-02-10T07:06:32.259Z,979.06
2019-02-10T07:07:32.256Z,979.02
2019-02-10T07:08:32.235Z,978.96
2019-02-10T07:09:32.227Z,978.97
2019-02-10T07:10:32.199Z,978.95
2019-02-10T07:11:32.196Z,978.82
2019-02-10T07:12:32.177Z,978.92
2019-02-10T07:13:32.165Z,978.96
2019-02-10T07:14:32.184Z,978.79
2019-02-10T07:15:32.163Z,978.85
2019-02-10T07:16:32.138Z,978.79
2019-02-10T07:17:32.128Z,978.78
2019-02-10T07:18:32.138Z,978.64
2019-02-10T07:19:32.112Z,978.66
2019-02-10T07:20:32.115Z,978.68
2019-02-10T07:21:32.130Z,978.69
2019-02-10T07:22:32.072Z,978.62
2019-02-10T07:23:32.078Z,978.62
2019-02-10T07:24:32.059Z,978.58
2019-02-10T07:25:32.057Z,978.60
2019-02-10T07:26:32.028Z,978.57
2019-02-10T07:27:32.028Z,978.59
2019-02-10T07:28:32.003Z,978.60
2019-02-10T07:29:32.011Z,978.65
2019-02-10T07:30:31.989Z,978.59
2019-02-10T07:31:31.970Z,978.63
2019-02-10T07:32:31.959Z,978.71
2019-02-10T07:33:32.000Z,978.66
2019-02-10T07:34:31.958Z,978.62
2019-02-10T07:35:31.960Z,978.68
2019-02-10T07:36:31.924Z,978.58
2019-02-10T07:37:31.932Z,978.58
2019-02-10T07:38:38.538Z,978.60
2019-02-10T07:39:32.886Z,978.60
2019-02-10T07:40:31.893Z,978.55
2019-02-10T07:41:31.866Z,978.60
2019-02-10T07:42:31.900Z,978.52
2019-02-10T07:43:31.849Z,978.50
2019-02-10T07:44:31.828Z,978.49
2019-02-10T07:45:31.840Z,978.52
2019-02-10T07:46:31.807Z,978.51
2019-02-10T07:47:31.802Z,978.39
2019-02-10T07:48:31.812Z,978.38
2019-02-10T07:49:31.792Z,978.43
2019-02-10T07:50:31.795Z,978.39
2019-02-10T07:51:31.764Z,978.33
2019-02-10T07:52:31.750Z,978.34
2019-02-10T07:53:31.731Z,978.41
2019-02-10T07:54:31.742Z,978.41
2019-02-10T07:55:31.730Z,978.45
2019-02-10T07:56:31.710Z,978.43
2019-02-10T07:57:31.698Z,978.41
2019-02-10T07:58:31.699Z,978.40
2019-02-10T07:59:31.679Z,978.39
2019-02-10T08:00:31.691Z,978.31
2019-02-10T08:01:31.643Z,978.40
2019-02-10T08:02:31.649Z,978.37
2019-02-10T08:03:31.621Z,978.43
2019-02-10T08:04:31.612Z,978.36
2019-02-10T08:05:31.669Z,978.33
2019-02-10T08:06:31.589Z,978.24
2019-02-10T08:07:31.579Z,978.23
2019-02-10T08:08:31.605Z,978.39
2019-02-10T08:09:31.601Z,978.31
2019-02-10T08:10:31.580Z,978.33
2019-02-10T08:11:31.546Z,978.33
2019-02-10T08:12:31.527Z,978.26
2019-02-10T08:13:33.169Z,978.31
2019-02-10T08:14:31.507Z,978.23
2019-02-10T08:15:31.490Z,978.25
2019-02-10T08:16:31.501Z,978.23
2019-02-10T08:17:31.469Z,978.32
2019-02-10T08:18:31.485Z,978.20
2019-02-10T08:19:31.446Z,978.19
2019-02-10T08:20:31.436Z,978.23
2019-02-10T08:21:31.438Z,978.19
2019-02-10T08:22:31.414Z,978.18
2019-02-10T08:23:31.446Z,978.17
2019-02-10T08:24:31.393Z,978.12
2019-02-10T08:25:31.388Z,978.17
2019-02-10T08:26:31.390Z,977.97
2019-02-10T08:27:31.359Z,978.01
2019-02-10T08:28:31.345Z,978.04
2019-02-10T08:29:31.426Z,978.07
2019-02-10T08:30:32.302Z,977.99
2019-02-10T08:31:31.741Z,978.14
2019-02-10T08:32:32.312Z,977.96
2019-02-10T08:33:31.364Z,977.97
2019-02-10T08:34:31.366Z,977.97
2019-02-10T08:35:31.294Z,977.91
2019-02-10T08:36:31.294Z,977.92
2019-02-10T08:37:31.249Z,977.87
2019-02-10T08:38:31.238Z,977.92
2019-02-10T08:39:31.239Z,977.87
2019-02-10T08:40:31.218Z,977.84
2019-02-10T08:41:31.234Z,977.79
2019-02-10T08:42:31.202Z,977.89
2019-02-10T08:43:31.203Z,977.81
2019-02-10T08:44:31.173Z,977.66
2019-02-10T08:45:31.162Z,977.69
2019-02-10T08:46:31.165Z,977.62
2019-02-10T08:47:33.695Z,977.62
2019-02-10T08:48:31.156Z,977.62
2019-02-10T08:49:31.120Z,977.62
2019-02-10T08:50:31.172Z,977.53
2019-02-10T08:51:31.135Z,977.53
2019-02-10T08:52:31.084Z,977.43
2019-02-10T08:53:31.100Z,977.41
2019-02-10T08:54:31.080Z,977.47
2019-02-10T08:55:31.053Z,977.43
2019-02-10T08:56:31.043Z,977.41
2019-02-10T08:57:31.043Z,977.45
2019-02-10T08:58:31.030Z,977.37
2019-02-10T08:59:31.010Z,977.43
2019-02-10T09:00:31.001Z,977.45
2019-02-10T09:01:31.034Z,977.30
2019-02-10T09:02:30.997Z,977.32
2019-02-10T09:03:31.015Z,977.34
2019-02-10T09:04:30.955Z,977.27
2019-02-10T09:05:30.963Z,977.28
2019-02-10T09:06:31.457Z,977.33
2019-02-10T09:07:30.936Z,977.30
2019-02-10T09:08:30.925Z,977.32
2019-02-10T09:09:30.930Z,977.34
2019-02-10T09:10:30.889Z,977.26
2019-02-10T09:11:30.893Z,977.32
2019-02-10T09:12:30.887Z,977.41
2019-02-10T09:13:30.887Z,977.30
2019-02-10T09:14:30.844Z,977.24
2019-02-10T09:15:30.837Z,977.30
2019-02-10T09:16:30.822Z,977.20
2019-02-10T09:17:30.828Z,977.09
2019-02-10T09:18:30.817Z,976.98
2019-02-10T09:19:30.814Z,977.01
2019-02-10T09:20:30.808Z,976.96
2019-02-10T09:21:30.773Z,976.83
2019-02-10T09:22:30.773Z,976.98
2019-02-10T09:23:30.742Z,976.98
2019-02-10T09:24:30.804Z,977.09
2019-02-10T09:25:30.866Z,977.07
2019-02-10T09:26:31.099Z,977.08
2019-02-10T09:27:30.725Z,977.06
2019-02-10T09:28:30.697Z,976.94
2019-02-10T09:29:30.711Z,976.95
2019-02-10T09:30:30.674Z,976.91
2019-02-10T09:31:30.658Z,976.90
2019-02-10T09:32:30.690Z,976.79
2019-02-10T09:33:30.631Z,976.85
2019-02-10T09:34:30.678Z,976.67
2019-02-10T09:35:30.616Z,976.88
2019-02-10T09:36:30.600Z,976.67
2019-02-10T09:37:30.635Z,976.72
2019-02-10T09:38:30.586Z,976.75
2019-02-10T09:39:30.601Z,976.85
2019-02-10T09:40:30.566Z,976.80
2019-02-10T09:41:30.546Z,976.80
2019-02-10T09:42:30.546Z,976.74
2019-02-10T09:43:30.523Z,976.63
2019-02-10T09:44:30.517Z,976.60
2019-02-10T09:45:30.497Z,976.52
2019-02-10T09:46:30.504Z,976.44
2019-02-10T09:47:30.521Z,976.53
2019-02-10T09:48:30.465Z,976.37
2019-02-10T09:49:30.460Z,976.46
2019-02-10T09:50:30.471Z,976.41
2019-02-10T09:51:30.431Z,976.25
2019-02-10T09:52:30.432Z,976.25
2019-02-10T09:53:30.408Z,976.23
2019-02-10T09:54:30.397Z,976.26
2019-02-10T09:55:30.389Z,976.29
2019-02-10T09:56:30.387Z,976.12
2019-02-10T09:57:30.385Z,976.14
2019-02-10T09:58:30.370Z,976.10
2019-02-10T09:59:30.356Z,976.10
2019-02-10T10:00:30.344Z,976.05
2019-02-10T10:01:30.341Z,976.12
2019-02-10T10:02:30.366Z,976.11
2019-02-10T10:03:30.298Z,976.09
2019-02-10T10:04:30.289Z,976.24
2019-02-10T10:05:30.275Z,976.17
2019-02-10T10:06:30.265Z,976.12
2019-02-10T10:07:30.272Z,976.12
2019-02-10T10:08:30.281Z,976.12
2019-02-10T10:09:30.227Z,976.07
2019-02-10T10:10:30.361Z,976.07
2019-02-10T10:11:30.209Z,976.20
2019-02-10T10:12:30.216Z,976.05
2019-02-10T10:13:30.200Z,976.08
2019-02-10T10:14:31.038Z,976.09
2019-02-10T10:15:30.165Z,975.95
2019-02-10T10:16:30.165Z,976.11
2019-02-10T10:17:30.138Z,976.13
2019-02-10T10:18:30.143Z,976.19
2019-02-10T10:19:30.116Z,976.07
2019-02-10T10:20:30.108Z,975.86
2019-02-10T10:21:30.110Z,976.21
2019-02-10T10:22:30.085Z,976.11
2019-02-10T10:23:30.097Z,976.11
2019-02-10T10:24:30.071Z,976.29
2019-02-10T10:25:30.065Z,976.29
2019-02-10T10:26:30.059Z,976.18
2019-02-10T10:27:30.041Z,976.27
2019-02-10T10:28:30.110Z,976.23
2019-02-10T10:29:30.008Z,976.27
2019-02-10T10:30:29.996Z,976.31
2019-02-10T10:31:30.028Z,976.35
2019-02-10T10:32:29.980Z,976.28
2019-02-10T10:33:30.200Z,976.38
2019-02-10T10:34:29.954Z,976.42
2019-02-10T10:35:29.950Z,976.23
2019-02-10T10:36:29.938Z,976.35
2019-02-10T10:37:29.943Z,976.45
2019-02-10T10:38:29.925Z,976.38
2019-02-10T10:39:29.899Z,976.43
2019-02-10T10:40:29.908Z,976.49
2019-02-10T10:41:29.884Z,976.31
2019-02-10T10:42:29.874Z,976.41
2019-02-10T10:43:30.029Z,976.34
2019-02-10T10:44:29.863Z,976.25
2019-02-10T10:45:29.961Z,976.29
2019-02-10T11:59:04.171Z,974.98
2019-02-10T12:03:16.704Z,975.25
2019-02-10T12:04:16.513Z,975.18
2019-02-10T12:05:16.501Z,975.31
2019-02-10T12:06:16.480Z,975.31
2019-02-10T12:07:16.474Z,975.31
2019-02-10T12:08:16.478Z,975.46
2019-02-10T12:09:16.448Z,975.34
2019-02-10T12:10:16.481Z,975.46
2019-02-10T12:11:16.436Z,975.43
2019-02-10T12:12:16.418Z,975.44
2019-02-10T12:13:16.403Z,975.56
2019-02-10T12:14:16.393Z,975.63
2019-02-10T12:15:16.393Z,975.61
2019-02-10T12:16:16.378Z,975.57
2019-02-10T12:17:16.361Z,975.71
2019-02-10T12:18:16.350Z,975.56
2019-02-10T12:19:16.339Z,975.60
2019-02-10T12:20:16.626Z,975.76
2019-02-10T12:21:16.316Z,975.51
2019-02-10T12:22:16.309Z,975.48
2019-02-10T12:23:16.295Z,975.54
2019-02-10T12:24:16.286Z,975.49
2019-02-10T12:25:16.271Z,975.38
2019-02-10T12:26:16.274Z,975.52
2019-02-10T12:27:16.258Z,975.56
2019-02-10T12:28:16.259Z,975.51
2019-02-10T12:29:16.239Z,975.57
2019-02-10T12:30:16.217Z,975.49
2019-02-10T12:31:16.220Z,975.42
2019-02-10T12:32:16.196Z,975.56
2019-02-10T12:33:16.491Z,975.51
2019-02-10T12:34:16.181Z,975.43
2019-02-10T12:35:16.165Z,975.49
2019-02-10T12:36:16.170Z,975.43
2019-02-10T12:37:16.147Z,975.44
2019-02-10T12:38:16.168Z,975.21
2019-02-10T12:39:16.173Z,975.27
2019-02-10T12:40:16.121Z,975.15
2019-02-10T12:41:16.110Z,975.28
2019-02-10T12:42:16.091Z,975.28
2019-02-10T12:43:16.078Z,975.21
2019-02-10T12:44:16.073Z,975.23
2019-02-10T12:45:16.056Z,975.26
2019-02-10T12:46:16.303Z,975.28
2019-02-10T12:47:16.262Z,975.10
2019-02-10T12:48:16.023Z,975.04
2019-02-10T12:49:16.011Z,975.05
2019-02-10T12:50:16.187Z,975.06
2019-02-10T12:51:16.245Z,974.82
2019-02-10T12:52:15.982Z,974.79
2019-02-10T12:53:15.968Z,974.87
2019-02-10T12:54:15.956Z,974.79
2019-02-10T12:55:15.947Z,974.75
2019-02-10T12:56:15.952Z,974.71
2019-02-10T12:57:15.924Z,974.56
2019-02-10T12:58:15.915Z,974.67
2019-02-10T12:59:15.906Z,974.53
2019-02-10T13:00:15.892Z,974.63
2019-02-10T13:01:15.922Z,974.59
2019-02-10T13:02:15.871Z,974.66
2019-02-10T13:03:15.929Z,974.67
2019-02-10T13:04:15.854Z,974.57
2019-02-10T13:05:15.844Z,974.59
2019-02-10T13:06:15.841Z,974.53
2019-02-10T13:07:15.823Z,974.50
2019-02-10T13:08:15.807Z,974.58
2019-02-10T13:09:15.796Z,974.35
2019-02-10T13:10:17.997Z,974.34
2019-02-10T13:11:15.795Z,974.46
2019-02-10T13:12:15.769Z,974.52
2019-02-10T13:13:19.324Z,974.49
2019-02-10T13:14:15.742Z,974.39
2019-02-10T13:15:15.735Z,974.41
2019-02-10T13:16:15.754Z,974.50
2019-02-10T13:17:15.718Z,974.41
2019-02-10T13:18:15.702Z,974.52
2019-02-10T13:19:15.687Z,974.50
2019-02-10T13:20:15.677Z,974.40
2019-02-10T13:21:15.684Z,974.37
2019-02-10T13:22:15.662Z,974.26
2019-02-10T13:23:15.648Z,974.18
2019-02-10T13:24:15.639Z,974.26
2019-02-10T13:25:15.660Z,974.21
2019-02-10T13:26:15.655Z,974.04
2019-02-10T13:27:15.866Z,974.17
2019-02-10T13:28:15.640Z,973.97
2019-02-10T13:29:15.599Z,973.93
2019-02-10T13:30:15.594Z,973.90
2019-02-10T13:31:15.598Z,973.98
2019-02-10T13:32:15.548Z,973.94
2019-02-10T13:33:15.542Z,973.82
2019-02-10T13:34:17.771Z,973.93
2019-02-10T13:40:19.540Z,973.74
2019-02-10T13:41:37.587Z,973.73
2019-02-10T13:42:13.025Z,973.57
2019-02-10T13:43:09.130Z,973.55
2019-02-10T13:44:08.101Z,973.49
2019-02-10T13:45:08.089Z,973.57
2019-02-10T13:46:08.091Z,973.54
2019-02-10T13:47:08.125Z,973.48
2019-02-10T13:48:08.054Z,973.49
2019-02-10T13:49:08.055Z,973.54